sensor_id;sensor_type;location;lat;lon;timestamp;temperature;humidity
66522;SHT31;53349;53.538;8.584;2022-08-01T00:00:21;19.50;89.29
66522;SHT31;53349;53.538;8.584;2022-08-01T00:02:47;19.47;89.23
66522;SHT31;53349;53.538;8.584;2022-08-01T00:05:12;19.46;89.19
66522;SHT31;53349;53.538;8.584;2022-08-01T00:07:38;19.43;88.86
66522;SHT31;53349;53.538;8.584;2022-08-01T00:10:06;19.42;88.83
66522;SHT31;53349;53.538;8.584;2022-08-01T00:12:32;19.43;88.74
66522;SHT31;53349;53.538;8.584;2022-08-01T00:14:57;19.42;88.61
66522;SHT31;53349;53.538;8.584;2022-08-01T00:17:23;19.43;88.50
66522;SHT31;53349;53.538;8.584;2022-08-01T00:19:48;19.39;88.24
66522;SHT31;53349;53.538;8.584;2022-08-01T00:22:13;19.40;88.25
66522;SHT31;53349;53.538;8.584;2022-08-01T00:24:39;19.40;88.19
66522;SHT31;53349;53.538;8.584;2022-08-01T00:27:05;19.43;88.13
66522;SHT31;53349;53.538;8.584;2022-08-01T00:29:30;19.45;87.90
66522;SHT31;53349;53.538;8.584;2022-08-01T00:31:55;19.43;87.84
66522;SHT31;53349;53.538;8.584;2022-08-01T00:34:21;19.43;87.89
66522;SHT31;53349;53.538;8.584;2022-08-01T00:36:46;19.42;87.57
66522;SHT31;53349;53.538;8.584;2022-08-01T00:39:12;19.43;87.56
66522;SHT31;53349;53.538;8.584;2022-08-01T00:41:37;19.43;87.39
66522;SHT31;53349;53.538;8.584;2022-08-01T00:44:04;19.43;87.41
66522;SHT31;53349;53.538;8.584;2022-08-01T00:46:30;19.42;87.41
66522;SHT31;53349;53.538;8.584;2022-08-01T00:48:56;19.39;87.13
66522;SHT31;53349;53.538;8.584;2022-08-01T00:51:22;19.39;87.19
66522;SHT31;53349;53.538;8.584;2022-08-01T00:53:49;19.39;87.11
66522;SHT31;53349;53.538;8.584;2022-08-01T00:56:15;19.40;87.13
66522;SHT31;53349;53.538;8.584;2022-08-01T00:58:40;19.38;87.34
66522;SHT31;53349;53.538;8.584;2022-08-01T01:01:06;19.38;87.40
66522;SHT31;53349;53.538;8.584;2022-08-01T01:03:31;19.38;87.40
66522;SHT31;53349;53.538;8.584;2022-08-01T01:09:07;19.38;87.60
66522;SHT31;53349;53.538;8.584;2022-08-01T01:15:11;19.36;87.64
66522;SHT31;53349;53.538;8.584;2022-08-01T01:17:41;19.33;87.36
66522;SHT31;53349;53.538;8.584;2022-08-01T01:20:12;19.33;87.22
66522;SHT31;53349;53.538;8.584;2022-08-01T01:27:57;19.30;86.65
66522;SHT31;53349;53.538;8.584;2022-08-01T01:30:28;19.28;86.33
66522;SHT31;53349;53.538;8.584;2022-08-01T01:32:59;19.25;86.16
66522;SHT31;53349;53.538;8.584;2022-08-01T01:35:29;19.25;86.25
66522;SHT31;53349;53.538;8.584;2022-08-01T01:38:18;19.25;86.13
66522;SHT31;53349;53.538;8.584;2022-08-01T01:40:47;19.23;86.07
66522;SHT31;53349;53.538;8.584;2022-08-01T01:43:14;19.22;86.12
66522;SHT31;53349;53.538;8.584;2022-08-01T01:45:40;19.25;86.05
66522;SHT31;53349;53.538;8.584;2022-08-01T01:48:08;19.25;85.96
66522;SHT31;53349;53.538;8.584;2022-08-01T01:50:35;19.25;85.85
66522;SHT31;53349;53.538;8.584;2022-08-01T01:53:01;19.25;85.94
66522;SHT31;53349;53.538;8.584;2022-08-01T01:55:29;19.26;85.74
66522;SHT31;53349;53.538;8.584;2022-08-01T01:57:56;19.28;85.76
66522;SHT31;53349;53.538;8.584;2022-08-01T02:00:23;19.28;85.82
66522;SHT31;53349;53.538;8.584;2022-08-01T02:02:51;19.25;86.13
66522;SHT31;53349;53.538;8.584;2022-08-01T02:05:17;19.26;86.42
66522;SHT31;53349;53.538;8.584;2022-08-01T02:07:43;19.22;86.53
66522;SHT31;53349;53.538;8.584;2022-08-01T02:10:11;19.25;86.43
66522;SHT31;53349;53.538;8.584;2022-08-01T02:12:41;19.23;86.32
66522;SHT31;53349;53.538;8.584;2022-08-01T02:15:09;19.25;86.24
66522;SHT31;53349;53.538;8.584;2022-08-01T02:17:44;19.26;86.02
66522;SHT31;53349;53.538;8.584;2022-08-01T02:20:12;19.23;86.10
66522;SHT31;53349;53.538;8.584;2022-08-01T02:22:42;19.19;86.06
66522;SHT31;53349;53.538;8.584;2022-08-01T02:26:02;19.18;85.88
66522;SHT31;53349;53.538;8.584;2022-08-01T02:28:22;19.16;85.87
66522;SHT31;53349;53.538;8.584;2022-08-01T02:30:53;19.16;85.85
66522;SHT31;53349;53.538;8.584;2022-08-01T02:33:22;19.16;85.94
66522;SHT31;53349;53.538;8.584;2022-08-01T02:35:52;19.14;85.70
66522;SHT31;53349;53.538;8.584;2022-08-01T02:38:22;19.12;85.89
66522;SHT31;53349;53.538;8.584;2022-08-01T02:40:50;19.16;85.96
66522;SHT31;53349;53.538;8.584;2022-08-01T02:43:21;19.11;86.00
66522;SHT31;53349;53.538;8.584;2022-08-01T02:45:52;19.11;86.05
66522;SHT31;53349;53.538;8.584;2022-08-01T02:48:19;19.08;85.87
66522;SHT31;53349;53.538;8.584;2022-08-01T02:50:48;19.11;85.89
66522;SHT31;53349;53.538;8.584;2022-08-01T02:53:14;19.05;85.76
66522;SHT31;53349;53.538;8.584;2022-08-01T02:55:43;19.08;86.02
66522;SHT31;53349;53.538;8.584;2022-08-01T02:58:14;19.09;86.15
66522;SHT31;53349;53.538;8.584;2022-08-01T03:00:41;19.11;86.59
66522;SHT31;53349;53.538;8.584;2022-08-01T03:03:08;19.11;86.91
66522;SHT31;53349;53.538;8.584;2022-08-01T03:05:35;19.01;86.77
66522;SHT31;53349;53.538;8.584;2022-08-01T03:08:02;18.98;86.75
66522;SHT31;53349;53.538;8.584;2022-08-01T03:10:28;18.95;86.90
66522;SHT31;53349;53.538;8.584;2022-08-01T03:12:55;18.94;86.83
66522;SHT31;53349;53.538;8.584;2022-08-01T03:15:23;18.89;86.78
66522;SHT31;53349;53.538;8.584;2022-08-01T03:17:49;18.91;86.70
66522;SHT31;53349;53.538;8.584;2022-08-01T03:20:16;18.89;86.68
66522;SHT31;53349;53.538;8.584;2022-08-01T03:22:44;18.89;86.72
66522;SHT31;53349;53.538;8.584;2022-08-01T03:25:12;18.81;86.68
66522;SHT31;53349;53.538;8.584;2022-08-01T03:27:40;18.75;86.77
66522;SHT31;53349;53.538;8.584;2022-08-01T03:30:07;18.75;86.95
66522;SHT31;53349;53.538;8.584;2022-08-01T03:32:33;18.72;87.14
66522;SHT31;53349;53.538;8.584;2022-08-01T03:34:58;18.68;87.22
66522;SHT31;53349;53.538;8.584;2022-08-01T03:37:27;18.64;87.32
66522;SHT31;53349;53.538;8.584;2022-08-01T03:40:09;18.57;87.28
66522;SHT31;53349;53.538;8.584;2022-08-01T03:42:44;18.54;87.59
66522;SHT31;53349;53.538;8.584;2022-08-01T03:45:19;18.54;87.42
66522;SHT31;53349;53.538;8.584;2022-08-01T03:47:46;18.48;87.46
66522;SHT31;53349;53.538;8.584;2022-08-01T03:50:15;18.44;87.44
66522;SHT31;53349;53.538;8.584;2022-08-01T03:52:43;18.46;87.57
66522;SHT31;53349;53.538;8.584;2022-08-01T03:55:11;18.41;87.43
66522;SHT31;53349;53.538;8.584;2022-08-01T03:57:37;18.43;87.32
66522;SHT31;53349;53.538;8.584;2022-08-01T04:00:05;18.37;87.13
66522;SHT31;53349;53.538;8.584;2022-08-01T04:02:36;18.38;86.92
66522;SHT31;53349;53.538;8.584;2022-08-01T04:05:03;18.32;87.01
66522;SHT31;53349;53.538;8.584;2022-08-01T04:07:33;18.34;86.98
66522;SHT31;53349;53.538;8.584;2022-08-01T04:10:01;18.34;86.71
66522;SHT31;53349;53.538;8.584;2022-08-01T04:12:27;18.37;86.62
66522;SHT31;53349;53.538;8.584;2022-08-01T04:14:52;18.34;86.58
66522;SHT31;53349;53.538;8.584;2022-08-01T04:17:18;18.37;86.07
66522;SHT31;53349;53.538;8.584;2022-08-01T04:19:44;18.32;86.07
66522;SHT31;53349;53.538;8.584;2022-08-01T04:22:11;18.36;85.82
66522;SHT31;53349;53.538;8.584;2022-08-01T04:24:39;18.33;85.62
66522;SHT31;53349;53.538;8.584;2022-08-01T04:27:09;18.36;85.04
66522;SHT31;53349;53.538;8.584;2022-08-01T04:29:37;18.38;84.78
66522;SHT31;53349;53.538;8.584;2022-08-01T04:32:04;18.33;84.46
66522;SHT31;53349;53.538;8.584;2022-08-01T04:34:32;18.36;84.38
66522;SHT31;53349;53.538;8.584;2022-08-01T04:36:59;18.38;84.14
66522;SHT31;53349;53.538;8.584;2022-08-01T04:39:27;18.38;84.19
66522;SHT31;53349;53.538;8.584;2022-08-01T04:41:54;18.37;83.94
66522;SHT31;53349;53.538;8.584;2022-08-01T04:44:24;18.33;83.48
66522;SHT31;53349;53.538;8.584;2022-08-01T04:46:50;18.30;82.82
66522;SHT31;53349;53.538;8.584;2022-08-01T04:49:20;18.30;82.91
66522;SHT31;53349;53.538;8.584;2022-08-01T04:51:53;18.33;82.72
66522;SHT31;53349;53.538;8.584;2022-08-01T04:54:29;18.27;82.85
66522;SHT31;53349;53.538;8.584;2022-08-01T04:56:55;18.32;82.83
66522;SHT31;53349;53.538;8.584;2022-08-01T04:59:25;18.33;82.67
66522;SHT31;53349;53.538;8.584;2022-08-01T05:02:11;18.30;82.37
66522;SHT31;53349;53.538;8.584;2022-08-01T05:04:38;18.27;82.44
66522;SHT31;53349;53.538;8.584;2022-08-01T05:07:05;18.23;81.69
66522;SHT31;53349;53.538;8.584;2022-08-01T05:09:31;18.22;81.10
66522;SHT31;53349;53.538;8.584;2022-08-01T05:12:00;18.22;81.14
66522;SHT31;53349;53.538;8.584;2022-08-01T05:14:27;18.22;81.14
66522;SHT31;53349;53.538;8.584;2022-08-01T05:16:53;18.17;80.73
66522;SHT31;53349;53.538;8.584;2022-08-01T05:19:19;18.14;80.75
66522;SHT31;53349;53.538;8.584;2022-08-01T05:21:45;18.14;80.83
66522;SHT31;53349;53.538;8.584;2022-08-01T05:24:10;18.16;80.80
66522;SHT31;53349;53.538;8.584;2022-08-01T05:26:36;18.14;80.94
66522;SHT31;53349;53.538;8.584;2022-08-01T05:29:02;18.19;80.57
66522;SHT31;53349;53.538;8.584;2022-08-01T05:31:28;18.20;80.01
66522;SHT31;53349;53.538;8.584;2022-08-01T05:33:53;18.23;80.24
66522;SHT31;53349;53.538;8.584;2022-08-01T05:36:19;18.25;80.24
66522;SHT31;53349;53.538;8.584;2022-08-01T05:38:44;18.27;80.24
66522;SHT31;53349;53.538;8.584;2022-08-01T05:41:10;18.23;79.37
66522;SHT31;53349;53.538;8.584;2022-08-01T05:43:36;18.25;79.30
66522;SHT31;53349;53.538;8.584;2022-08-01T05:46:01;18.23;79.17
66522;SHT31;53349;53.538;8.584;2022-08-01T05:48:27;18.23;78.49
66522;SHT31;53349;53.538;8.584;2022-08-01T05:50:53;18.25;78.23
66522;SHT31;53349;53.538;8.584;2022-08-01T05:53:19;18.23;78.12
66522;SHT31;53349;53.538;8.584;2022-08-01T05:55:44;18.26;77.51
66522;SHT31;53349;53.538;8.584;2022-08-01T05:58:10;18.26;77.74
66522;SHT31;53349;53.538;8.584;2022-08-01T06:00:35;18.25;77.60
66522;SHT31;53349;53.538;8.584;2022-08-01T06:03:01;18.26;77.16
66522;SHT31;53349;53.538;8.584;2022-08-01T06:05:26;18.27;76.54
66522;SHT31;53349;53.538;8.584;2022-08-01T06:07:51;18.32;76.73
66522;SHT31;53349;53.538;8.584;2022-08-01T06:10:17;18.38;76.23
66522;SHT31;53349;53.538;8.584;2022-08-01T06:12:46;18.48;76.59
66522;SHT31;53349;53.538;8.584;2022-08-01T06:15:11;18.71;75.89
66522;SHT31;53349;53.538;8.584;2022-08-01T06:17:37;18.75;75.33
66522;SHT31;53349;53.538;8.584;2022-08-01T06:20:04;18.87;75.59
66522;SHT31;53349;53.538;8.584;2022-08-01T06:22:32;19.23;74.53
66522;SHT31;53349;53.538;8.584;2022-08-01T06:24:57;19.63;71.61
66522;SHT31;53349;53.538;8.584;2022-08-01T06:27:23;20.04;70.72
66522;SHT31;53349;53.538;8.584;2022-08-01T06:29:50;20.18;69.30
66522;SHT31;53349;53.538;8.584;2022-08-01T06:32:18;20.11;69.21
66522;SHT31;53349;53.538;8.584;2022-08-01T06:34:44;20.04;69.24
66522;SHT31;53349;53.538;8.584;2022-08-01T06:37:09;20.13;68.79
66522;SHT31;53349;53.538;8.584;2022-08-01T06:39:35;20.55;67.97
66522;SHT31;53349;53.538;8.584;2022-08-01T06:42:00;20.64;67.04
66522;SHT31;53349;53.538;8.584;2022-08-01T06:44:25;20.80;66.86
66522;SHT31;53349;53.538;8.584;2022-08-01T06:46:51;20.78;67.15
66522;SHT31;53349;53.538;8.584;2022-08-01T06:49:16;20.68;66.85
66522;SHT31;53349;53.538;8.584;2022-08-01T06:51:42;20.58;66.97
66522;SHT31;53349;53.538;8.584;2022-08-01T06:54:07;20.45;67.15
66522;SHT31;53349;53.538;8.584;2022-08-01T06:56:33;20.39;66.39
66522;SHT31;53349;53.538;8.584;2022-08-01T06:59:00;20.42;66.06
66522;SHT31;53349;53.538;8.584;2022-08-01T07:01:27;20.51;66.12
66522;SHT31;53349;53.538;8.584;2022-08-01T07:03:53;20.89;65.46
66522;SHT31;53349;53.538;8.584;2022-08-01T07:06:19;21.44;63.71
66522;SHT31;53349;53.538;8.584;2022-08-01T07:08:44;21.85;62.73
66522;SHT31;53349;53.538;8.584;2022-08-01T07:11:09;21.98;61.98
66522;SHT31;53349;53.538;8.584;2022-08-01T07:13:35;22.20;61.03
66522;SHT31;53349;53.538;8.584;2022-08-01T07:16:00;22.29;60.51
66522;SHT31;53349;53.538;8.584;2022-08-01T07:18:26;22.59;59.44
66522;SHT31;53349;53.538;8.584;2022-08-01T07:20:51;22.46;59.40
66522;SHT31;53349;53.538;8.584;2022-08-01T07:23:17;22.53;60.39
66522;SHT31;53349;53.538;8.584;2022-08-01T07:25:42;22.53;60.00
66522;SHT31;53349;53.538;8.584;2022-08-01T07:28:08;22.73;58.40
66522;SHT31;53349;53.538;8.584;2022-08-01T07:30:34;22.57;58.56
66522;SHT31;53349;53.538;8.584;2022-08-01T07:32:59;22.49;59.46
66522;SHT31;53349;53.538;8.584;2022-08-01T07:35:25;22.25;59.58
66522;SHT31;53349;53.538;8.584;2022-08-01T07:37:51;22.10;59.98
66522;SHT31;53349;53.538;8.584;2022-08-01T07:40:18;22.13;59.79
66522;SHT31;53349;53.538;8.584;2022-08-01T07:42:44;22.15;59.69
66522;SHT31;53349;53.538;8.584;2022-08-01T07:45:11;22.04;59.63
66522;SHT31;53349;53.538;8.584;2022-08-01T07:47:36;22.02;60.42
66522;SHT31;53349;53.538;8.584;2022-08-01T07:50:03;21.94;61.26
66522;SHT31;53349;53.538;8.584;2022-08-01T07:52:29;21.87;61.14
66522;SHT31;53349;53.538;8.584;2022-08-01T07:54:56;22.04;61.30
66522;SHT31;53349;53.538;8.584;2022-08-01T07:57:23;22.20;59.69
66522;SHT31;53349;53.538;8.584;2022-08-01T07:59:49;22.28;58.89
66522;SHT31;53349;53.538;8.584;2022-08-01T08:02:14;22.29;57.31
66522;SHT31;53349;53.538;8.584;2022-08-01T08:04:40;22.13;57.88
66522;SHT31;53349;53.538;8.584;2022-08-01T08:07:06;22.06;58.79
66522;SHT31;53349;53.538;8.584;2022-08-01T08:09:31;21.97;58.71
66522;SHT31;53349;53.538;8.584;2022-08-01T08:11:57;21.84;58.77
66522;SHT31;53349;53.538;8.584;2022-08-01T08:14:23;21.62;58.93
66522;SHT31;53349;53.538;8.584;2022-08-01T08:16:50;21.58;58.86
66522;SHT31;53349;53.538;8.584;2022-08-01T08:19:15;21.69;58.52
66522;SHT31;53349;53.538;8.584;2022-08-01T08:21:41;21.77;59.37
66522;SHT31;53349;53.538;8.584;2022-08-01T08:24:07;21.79;58.53
66522;SHT31;53349;53.538;8.584;2022-08-01T08:26:49;21.73;58.13
66522;SHT31;53349;53.538;8.584;2022-08-01T08:29:15;21.79;57.64
66522;SHT31;53349;53.538;8.584;2022-08-01T08:31:41;21.99;57.18
66522;SHT31;53349;53.538;8.584;2022-08-01T08:34:07;22.09;57.14
66522;SHT31;53349;53.538;8.584;2022-08-01T08:36:32;22.05;57.40
66522;SHT31;53349;53.538;8.584;2022-08-01T08:38:58;21.89;57.46
66522;SHT31;53349;53.538;8.584;2022-08-01T08:41:25;21.79;57.80
66522;SHT31;53349;53.538;8.584;2022-08-01T08:43:51;21.88;57.76
66522;SHT31;53349;53.538;8.584;2022-08-01T08:46:18;22.06;57.52
66522;SHT31;53349;53.538;8.584;2022-08-01T08:48:44;22.23;56.01
66522;SHT31;53349;53.538;8.584;2022-08-01T08:51:11;22.29;55.84
66522;SHT31;53349;53.538;8.584;2022-08-01T08:53:40;22.61;55.11
66522;SHT31;53349;53.538;8.584;2022-08-01T08:56:09;22.93;53.10
66522;SHT31;53349;53.538;8.584;2022-08-01T08:58:36;23.28;52.43
66522;SHT31;53349;53.538;8.584;2022-08-01T09:01:06;23.25;52.67
66522;SHT31;53349;53.538;8.584;2022-08-01T09:03:32;23.27;52.31
66522;SHT31;53349;53.538;8.584;2022-08-01T09:05:58;23.49;50.65
66522;SHT31;53349;53.538;8.584;2022-08-01T09:08:23;23.90;50.73
66522;SHT31;53349;53.538;8.584;2022-08-01T09:10:49;24.02;50.20
66522;SHT31;53349;53.538;8.584;2022-08-01T09:13:14;24.27;50.02
66522;SHT31;53349;53.538;8.584;2022-08-01T09:15:46;24.36;51.21
66522;SHT31;53349;53.538;8.584;2022-08-01T09:18:39;24.44;49.80
66522;SHT31;53349;53.538;8.584;2022-08-01T09:21:18;24.64;50.19
66522;SHT31;53349;53.538;8.584;2022-08-01T09:23:49;24.53;49.87
66522;SHT31;53349;53.538;8.584;2022-08-01T09:26:18;24.65;49.45
66522;SHT31;53349;53.538;8.584;2022-08-01T09:28:45;24.79;48.56
66522;SHT31;53349;53.538;8.584;2022-08-01T09:31:15;24.99;46.56
66522;SHT31;53349;53.538;8.584;2022-08-01T09:33:49;25.42;45.20
66522;SHT31;53349;53.538;8.584;2022-08-01T09:36:16;25.51;45.58
66522;SHT31;53349;53.538;8.584;2022-08-01T09:38:41;25.57;44.80
66522;SHT31;53349;53.538;8.584;2022-08-01T09:41:07;25.83;44.84
66522;SHT31;53349;53.538;8.584;2022-08-01T09:43:33;25.91;43.78
66522;SHT31;53349;53.538;8.584;2022-08-01T09:46:03;26.21;43.58
66522;SHT31;53349;53.538;8.584;2022-08-01T09:48:29;26.44;44.18
66522;SHT31;53349;53.538;8.584;2022-08-01T09:50:56;26.38;44.24
66522;SHT31;53349;53.538;8.584;2022-08-01T09:53:21;26.37;44.28
66522;SHT31;53349;53.538;8.584;2022-08-01T09:55:47;26.34;43.55
66522;SHT31;53349;53.538;8.584;2022-08-01T09:58:12;26.42;43.42
66522;SHT31;53349;53.538;8.584;2022-08-01T10:00:39;26.51;43.96
66522;SHT31;53349;53.538;8.584;2022-08-01T10:03:22;26.24;44.37
66522;SHT31;53349;53.538;8.584;2022-08-01T10:05:48;26.14;43.37
66522;SHT31;53349;53.538;8.584;2022-08-01T10:08:14;26.18;43.89
66522;SHT31;53349;53.538;8.584;2022-08-01T10:10:39;26.20;43.63
66522;SHT31;53349;53.538;8.584;2022-08-01T10:13:05;26.29;44.43
66522;SHT31;53349;53.538;8.584;2022-08-01T10:15:33;26.17;43.81
66522;SHT31;53349;53.538;8.584;2022-08-01T10:18:02;26.37;43.76
66522;SHT31;53349;53.538;8.584;2022-08-01T10:20:32;26.48;43.81
66522;SHT31;53349;53.538;8.584;2022-08-01T10:23:03;26.31;43.68
66522;SHT31;53349;53.538;8.584;2022-08-01T10:25:34;26.08;42.80
66522;SHT31;53349;53.538;8.584;2022-08-01T10:28:02;25.93;42.62
66522;SHT31;53349;53.538;8.584;2022-08-01T10:30:31;26.08;42.90
66522;SHT31;53349;53.538;8.584;2022-08-01T10:32:57;25.98;42.93
66522;SHT31;53349;53.538;8.584;2022-08-01T10:35:23;26.07;43.28
66522;SHT31;53349;53.538;8.584;2022-08-01T10:37:48;26.01;42.60
66522;SHT31;53349;53.538;8.584;2022-08-01T10:40:17;25.97;42.68
66522;SHT31;53349;53.538;8.584;2022-08-01T10:42:44;25.81;43.61
66522;SHT31;53349;53.538;8.584;2022-08-01T10:45:13;25.81;43.81
66522;SHT31;53349;53.538;8.584;2022-08-01T10:47:51;26.13;44.32
66522;SHT31;53349;53.538;8.584;2022-08-01T10:53:27;25.96;42.68
66522;SHT31;53349;53.538;8.584;2022-08-01T10:58:27;26.11;42.44
66522;SHT31;53349;53.538;8.584;2022-08-01T11:01:26;26.08;43.52
66522;SHT31;53349;53.538;8.584;2022-08-01T11:03:56;25.98;43.88
66522;SHT31;53349;53.538;8.584;2022-08-01T11:12:01;25.81;43.39
66522;SHT31;53349;53.538;8.584;2022-08-01T11:14:33;25.90;42.83
66522;SHT31;53349;53.538;8.584;2022-08-01T11:30:46;25.69;42.98
66522;SHT31;53349;53.538;8.584;2022-08-01T11:33:13;25.80;42.80
66522;SHT31;53349;53.538;8.584;2022-08-01T11:38:37;25.77;41.65
66522;SHT31;53349;53.538;8.584;2022-08-01T11:44:03;25.54;42.61
66522;SHT31;53349;53.538;8.584;2022-08-01T11:46:54;25.51;42.36
66522;SHT31;53349;53.538;8.584;2022-08-01T11:49:44;25.36;43.11
66522;SHT31;53349;53.538;8.584;2022-08-01T11:52:25;25.20;43.49
66522;SHT31;53349;53.538;8.584;2022-08-01T11:55:13;25.09;42.64
66522;SHT31;53349;53.538;8.584;2022-08-01T11:57:40;25.01;43.54
66522;SHT31;53349;53.538;8.584;2022-08-01T12:00:14;24.98;43.72
66522;SHT31;53349;53.538;8.584;2022-08-01T12:02:40;24.98;43.74
66522;SHT31;53349;53.538;8.584;2022-08-01T12:05:08;24.96;43.26
66522;SHT31;53349;53.538;8.584;2022-08-01T12:07:35;24.94;43.99
66522;SHT31;53349;53.538;8.584;2022-08-01T12:10:12;24.72;44.20
66522;SHT31;53349;53.538;8.584;2022-08-01T12:15:17;24.67;44.09
66522;SHT31;53349;53.538;8.584;2022-08-01T12:17:48;24.54;44.01
66522;SHT31;53349;53.538;8.584;2022-08-01T12:20:15;24.47;43.57
66522;SHT31;53349;53.538;8.584;2022-08-01T12:22:41;24.34;43.25
66522;SHT31;53349;53.538;8.584;2022-08-01T12:25:10;24.37;44.17
66522;SHT31;53349;53.538;8.584;2022-08-01T12:27:38;24.43;44.31
66522;SHT31;53349;53.538;8.584;2022-08-01T12:30:30;24.26;43.92
66522;SHT31;53349;53.538;8.584;2022-08-01T12:32:57;24.23;44.73
66522;SHT31;53349;53.538;8.584;2022-08-01T12:35:25;24.30;44.83
66522;SHT31;53349;53.538;8.584;2022-08-01T12:37:53;24.16;44.71
66522;SHT31;53349;53.538;8.584;2022-08-01T12:40:30;23.99;44.32
66522;SHT31;53349;53.538;8.584;2022-08-01T12:42:57;23.90;44.54
66522;SHT31;53349;53.538;8.584;2022-08-01T12:45:27;23.89;44.39
66522;SHT31;53349;53.538;8.584;2022-08-01T12:47:54;23.95;45.07
66522;SHT31;53349;53.538;8.584;2022-08-01T12:50:22;23.85;44.42
66522;SHT31;53349;53.538;8.584;2022-08-01T12:52:49;23.76;44.79
66522;SHT31;53349;53.538;8.584;2022-08-01T12:55:16;23.70;44.06
66522;SHT31;53349;53.538;8.584;2022-08-01T12:57:45;23.63;44.37
66522;SHT31;53349;53.538;8.584;2022-08-01T13:00:26;23.65;44.67
66522;SHT31;53349;53.538;8.584;2022-08-01T13:03:06;23.59;44.95
66522;SHT31;53349;53.538;8.584;2022-08-01T13:08:23;23.47;45.67
66522;SHT31;53349;53.538;8.584;2022-08-01T13:10:49;23.51;46.13
66522;SHT31;53349;53.538;8.584;2022-08-01T13:13:17;23.51;45.67
66522;SHT31;53349;53.538;8.584;2022-08-01T13:15:44;23.37;45.61
66522;SHT31;53349;53.538;8.584;2022-08-01T13:20:48;23.27;46.37
66522;SHT31;53349;53.538;8.584;2022-08-01T13:23:19;23.27;46.56
66522;SHT31;53349;53.538;8.584;2022-08-01T13:25:50;23.17;46.01
66522;SHT31;53349;53.538;8.584;2022-08-01T13:28:18;23.06;46.91
66522;SHT31;53349;53.538;8.584;2022-08-01T13:31:01;23.07;47.29
66522;SHT31;53349;53.538;8.584;2022-08-01T13:33:40;23.00;47.84
66522;SHT31;53349;53.538;8.584;2022-08-01T13:36:06;23.03;47.45
66522;SHT31;53349;53.538;8.584;2022-08-01T13:38:32;23.01;47.48
66522;SHT31;53349;53.538;8.584;2022-08-01T13:41:16;22.98;47.81
66522;SHT31;53349;53.538;8.584;2022-08-01T13:43:41;23.03;47.83
66522;SHT31;53349;53.538;8.584;2022-08-01T13:46:07;22.88;47.27
66522;SHT31;53349;53.538;8.584;2022-08-01T13:48:32;22.88;47.23
66522;SHT31;53349;53.538;8.584;2022-08-01T13:50:58;22.87;47.15
66522;SHT31;53349;53.538;8.584;2022-08-01T13:53:24;22.83;46.99
66522;SHT31;53349;53.538;8.584;2022-08-01T13:55:49;22.84;47.44
66522;SHT31;53349;53.538;8.584;2022-08-01T13:58:14;22.81;46.87
66522;SHT31;53349;53.538;8.584;2022-08-01T14:00:40;22.73;46.89
66522;SHT31;53349;53.538;8.584;2022-08-01T14:03:06;22.71;47.12
66522;SHT31;53349;53.538;8.584;2022-08-01T14:05:31;22.67;47.32
66522;SHT31;53349;53.538;8.584;2022-08-01T14:07:57;22.67;46.83
66522;SHT31;53349;53.538;8.584;2022-08-01T14:10:23;22.64;46.16
66522;SHT31;53349;53.538;8.584;2022-08-01T14:12:49;22.66;46.23
66522;SHT31;53349;53.538;8.584;2022-08-01T14:15:15;22.67;45.69
66522;SHT31;53349;53.538;8.584;2022-08-01T14:17:41;22.64;45.97
66522;SHT31;53349;53.538;8.584;2022-08-01T14:20:08;22.55;46.25
66522;SHT31;53349;53.538;8.584;2022-08-01T14:22:33;22.60;45.58
66522;SHT31;53349;53.538;8.584;2022-08-01T14:24:59;22.52;44.86
66522;SHT31;53349;53.538;8.584;2022-08-01T14:27:25;22.53;45.61
66522;SHT31;53349;53.538;8.584;2022-08-01T14:29:51;22.47;45.65
66522;SHT31;53349;53.538;8.584;2022-08-01T14:32:16;22.46;45.32
66522;SHT31;53349;53.538;8.584;2022-08-01T14:34:41;22.50;45.52
66522;SHT31;53349;53.538;8.584;2022-08-01T14:37:07;22.39;45.23
66522;SHT31;53349;53.538;8.584;2022-08-01T14:39:32;22.39;45.83
66522;SHT31;53349;53.538;8.584;2022-08-01T14:41:58;22.43;45.58
66522;SHT31;53349;53.538;8.584;2022-08-01T14:44:23;22.39;45.84
66522;SHT31;53349;53.538;8.584;2022-08-01T14:46:49;22.37;46.01
66522;SHT31;53349;53.538;8.584;2022-08-01T14:49:15;22.35;45.53
66522;SHT31;53349;53.538;8.584;2022-08-01T14:51:40;22.36;45.93
66522;SHT31;53349;53.538;8.584;2022-08-01T14:54:06;22.33;46.22
66522;SHT31;53349;53.538;8.584;2022-08-01T14:56:31;22.29;46.00
66522;SHT31;53349;53.538;8.584;2022-08-01T14:58:57;22.20;46.04
66522;SHT31;53349;53.538;8.584;2022-08-01T15:01:24;22.23;46.65
66522;SHT31;53349;53.538;8.584;2022-08-01T15:03:49;22.28;46.59
66522;SHT31;53349;53.538;8.584;2022-08-01T15:06:16;22.18;46.95
66522;SHT31;53349;53.538;8.584;2022-08-01T15:08:42;22.15;47.12
66522;SHT31;53349;53.538;8.584;2022-08-01T15:11:11;22.09;46.89
66522;SHT31;53349;53.538;8.584;2022-08-01T15:13:37;22.10;47.35
66522;SHT31;53349;53.538;8.584;2022-08-01T15:16:02;22.04;47.86
66522;SHT31;53349;53.538;8.584;2022-08-01T15:18:28;22.08;47.39
66522;SHT31;53349;53.538;8.584;2022-08-01T15:20:56;21.97;47.60
66522;SHT31;53349;53.538;8.584;2022-08-01T15:23:22;21.97;48.12
66522;SHT31;53349;53.538;8.584;2022-08-01T15:25:49;21.92;47.92
66522;SHT31;53349;53.538;8.584;2022-08-01T15:28:14;21.94;48.14
66522;SHT31;53349;53.538;8.584;2022-08-01T15:30:40;21.84;48.02
66522;SHT31;53349;53.538;8.584;2022-08-01T15:33:05;21.84;48.80
66522;SHT31;53349;53.538;8.584;2022-08-01T15:35:31;21.85;49.05
66522;SHT31;53349;53.538;8.584;2022-08-01T15:37:57;21.84;48.67
66522;SHT31;53349;53.538;8.584;2022-08-01T15:40:22;21.82;49.11
66522;SHT31;53349;53.538;8.584;2022-08-01T15:42:49;21.71;49.08
66522;SHT31;53349;53.538;8.584;2022-08-01T15:45:17;21.62;49.47
66522;SHT31;53349;53.538;8.584;2022-08-01T15:47:44;21.61;50.26
66522;SHT31;53349;53.538;8.584;2022-08-01T15:50:10;21.67;51.15
66522;SHT31;53349;53.538;8.584;2022-08-01T15:52:35;21.73;52.28
66522;SHT31;53349;53.538;8.584;2022-08-01T15:55:01;21.74;51.59
66522;SHT31;53349;53.538;8.584;2022-08-01T15:57:27;21.85;51.67
66522;SHT31;53349;53.538;8.584;2022-08-01T15:59:52;21.82;51.60
66522;SHT31;53349;53.538;8.584;2022-08-01T16:02:18;21.77;51.79
66522;SHT31;53349;53.538;8.584;2022-08-01T16:04:43;21.77;51.98
66522;SHT31;53349;53.538;8.584;2022-08-01T16:07:10;21.84;51.75
66522;SHT31;53349;53.538;8.584;2022-08-01T16:09:35;21.95;51.39
66522;SHT31;53349;53.538;8.584;2022-08-01T16:12:01;21.89;51.61
66522;SHT31;53349;53.538;8.584;2022-08-01T16:14:26;21.84;51.14
66522;SHT31;53349;53.538;8.584;2022-08-01T16:16:52;21.85;51.12
66522;SHT31;53349;53.538;8.584;2022-08-01T16:19:17;21.69;50.14
66522;SHT31;53349;53.538;8.584;2022-08-01T16:21:43;21.82;50.92
66522;SHT31;53349;53.538;8.584;2022-08-01T16:24:08;21.81;49.46